createdAt,value
2018-05-14T00:01:53.252Z,15.27
2018-05-14T00:04:20.844Z,15.16
2018-05-14T00:06:48.439Z,15.18
2018-05-14T00:09:16.075Z,15.17
2018-05-14T00:11:43.702Z,15.20
2018-05-14T00:14:11.309Z,15.16
2018-05-14T00:16:38.943Z,15.15
2018-05-14T00:19:06.568Z,15.15
2018-05-14T00:21:34.146Z,15.07
2018-05-14T00:24:01.980Z,15.01
2018-05-14T00:26:29.572Z,15.00
2018-05-14T00:28:57.158Z,14.94
2018-05-14T00:31:24.791Z,14.81
2018-05-14T00:33:52.380Z,14.66
2018-05-14T00:36:19.986Z,14.62
2018-05-14T00:38:47.660Z,14.53
2018-05-14T00:41:15.243Z,14.52
2018-05-14T00:43:42.835Z,14.52
2018-05-14T00:46:10.459Z,14.47
2018-05-14T00:48:38.051Z,14.43
2018-05-14T00:51:05.643Z,14.36
2018-05-14T00:53:33.392Z,14.31
2018-05-14T00:56:00.969Z,14.22
2018-05-14T00:58:28.553Z,14.28
2018-05-14T01:00:56.180Z,14.20
2018-05-14T01:03:23.759Z,14.22
2018-05-14T01:05:51.344Z,14.20
2018-05-14T01:08:18.958Z,14.12
2018-05-14T01:10:46.650Z,14.07
2018-05-14T01:13:14.272Z,13.92
2018-05-14T01:15:41.876Z,13.87
2018-05-14T01:18:09.468Z,13.87
2018-05-14T01:20:37.062Z,13.94
2018-05-14T01:23:04.764Z,14.06
2018-05-14T01:25:32.415Z,14.07
2018-05-14T01:28:00.095Z,14.23
2018-05-14T01:30:27.656Z,14.32
2018-05-14T01:32:55.231Z,14.31
2018-05-14T01:35:22.820Z,14.33
2018-05-14T01:37:50.505Z,14.36
2018-05-14T01:40:18.099Z,14.52
2018-05-14T01:42:45.678Z,14.48
2018-05-14T01:45:13.296Z,14.36
2018-05-14T01:47:40.888Z,14.40
2018-05-14T01:50:08.571Z,14.41
2018-05-14T01:52:36.169Z,14.40
2018-05-14T01:55:03.748Z,14.32
2018-05-14T01:57:31.390Z,14.18
2018-05-14T01:59:59.032Z,14.08
2018-05-14T02:02:26.618Z,14.04
2018-05-14T02:04:54.243Z,13.98
2018-05-14T02:07:21.832Z,13.83
2018-05-14T02:09:49.419Z,13.63
2018-05-14T02:12:17.034Z,13.76
2018-05-14T02:14:44.624Z,13.84
2018-05-14T02:17:12.217Z,13.81
2018-05-14T02:19:39.871Z,13.74
2018-05-14T02:22:07.454Z,13.80
2018-05-14T02:24:35.046Z,13.82
2018-05-14T02:27:02.713Z,13.77
2018-05-14T02:29:30.307Z,13.85
2018-05-14T02:31:57.887Z,13.78
2018-05-14T02:34:25.522Z,13.70
2018-05-14T02:36:53.175Z,13.80
2018-05-14T02:39:20.760Z,13.96
2018-05-14T02:41:48.662Z,13.96
2018-05-14T02:44:16.262Z,13.98
2018-05-14T02:46:43.865Z,14.01
2018-05-14T02:49:11.515Z,14.00
2018-05-14T02:51:39.099Z,13.99
2018-05-14T02:54:06.674Z,13.91
2018-05-14T02:56:34.294Z,13.82
2018-05-14T02:59:01.882Z,13.83
2018-05-14T03:01:29.475Z,13.85
2018-05-14T03:03:57.097Z,13.86
2018-05-14T03:06:24.682Z,13.90
2018-05-14T03:08:52.277Z,13.91
2018-05-14T03:11:19.909Z,13.96
2018-05-14T03:13:47.520Z,13.95
2018-05-14T03:16:15.127Z,13.98
2018-05-14T03:18:42.792Z,13.94
2018-05-14T03:21:10.381Z,13.95
2018-05-14T03:23:37.964Z,14.00
2018-05-14T03:26:05.584Z,14.11
2018-05-14T03:28:33.171Z,14.09
2018-05-14T03:31:00.769Z,14.20
2018-05-14T03:33:28.425Z,14.33
2018-05-14T03:35:56.029Z,14.26
2018-05-14T03:38:23.618Z,14.48
2018-05-14T03:40:51.236Z,14.73
2018-05-14T03:43:18.816Z,14.81
2018-05-14T03:45:46.415Z,14.96
2018-05-14T03:48:14.079Z,15.11
2018-05-14T03:50:41.668Z,15.21
2018-05-14T03:53:09.251Z,15.08
2018-05-14T03:55:36.879Z,15.36
2018-05-14T03:58:04.500Z,16.39
2018-05-14T04:00:43.910Z,17.04
2018-05-14T04:03:23.164Z,16.95
2018-05-14T04:06:02.416Z,16.96
2018-05-14T04:08:30.006Z,17.11
2018-05-14T04:10:57.596Z,17.25
2018-05-14T04:13:25.207Z,17.13
2018-05-14T04:15:52.808Z,16.94
2018-05-14T04:18:20.421Z,17.18
2018-05-14T04:20:48.049Z,18.16
2018-05-14T04:23:15.760Z,18.17
2018-05-14T04:25:43.343Z,17.70
2018-05-14T04:28:11.063Z,17.35
2018-05-14T04:30:38.732Z,17.02
2018-05-14T04:33:06.318Z,16.89
2018-05-14T04:35:34.067Z,16.87
2018-05-14T04:38:01.660Z,16.91
2018-05-14T04:40:29.247Z,17.14
2018-05-14T04:42:56.936Z,17.43
2018-05-14T04:45:24.704Z,17.68
2018-05-14T04:47:52.291Z,17.86
2018-05-14T04:50:19.906Z,17.66
2018-05-14T04:52:47.493Z,17.55
2018-05-14T04:55:15.224Z,17.32
2018-05-14T04:57:43.014Z,17.12
2018-05-14T05:00:10.637Z,17.00
2018-05-14T05:02:38.338Z,17.02
2018-05-14T05:05:05.959Z,17.00
2018-05-14T05:07:33.544Z,16.96
2018-05-14T05:10:01.327Z,16.97
2018-05-14T05:12:28.947Z,16.96
2018-05-14T05:14:56.868Z,16.94
2018-05-14T05:17:24.455Z,16.92
2018-05-14T05:19:52.176Z,16.89
2018-05-14T05:22:19.851Z,16.96
2018-05-14T05:24:47.516Z,16.94
2018-05-14T05:27:15.382Z,17.12
2018-05-14T05:29:43.045Z,17.32
2018-05-14T05:32:10.623Z,17.53
2018-05-14T05:34:38.232Z,17.96
2018-05-14T05:37:05.807Z,18.32
2018-05-14T05:39:33.479Z,18.58
2018-05-14T05:42:01.108Z,18.84
2018-05-14T05:44:28.680Z,19.23
2018-05-14T05:46:56.478Z,19.46
2018-05-14T05:49:24.324Z,19.55
2018-05-14T05:51:52.001Z,19.62
2018-05-14T05:54:19.591Z,19.39
2018-05-14T05:56:47.210Z,19.07
2018-05-14T05:59:14.961Z,19.26
2018-05-14T06:01:42.533Z,20.45
2018-05-14T06:04:10.305Z,21.86
2018-05-14T06:06:37.896Z,22.36
2018-05-14T06:09:06.460Z,22.37
2018-05-14T06:11:34.318Z,22.36
2018-05-14T06:14:01.897Z,23.67
2018-05-14T06:16:29.646Z,25.32
2018-05-14T06:18:57.252Z,25.76
2018-05-14T06:21:24.977Z,25.86
2018-05-14T06:23:52.570Z,25.50
2018-05-14T06:26:20.282Z,24.56
2018-05-14T06:28:47.859Z,24.03
2018-05-14T06:31:15.627Z,23.66
2018-05-14T06:33:43.226Z,23.17
2018-05-14T06:36:10.954Z,22.70
2018-05-14T06:38:38.609Z,22.54
2018-05-14T06:41:06.285Z,22.62
2018-05-14T06:43:33.840Z,22.78
2018-05-14T06:46:01.420Z,22.94
2018-05-14T06:48:29.255Z,23.00
2018-05-14T06:50:56.849Z,22.54
2018-05-14T06:53:24.571Z,22.65
2018-05-14T06:55:52.187Z,22.85
2018-05-14T06:58:20.025Z,22.90
2018-05-14T07:00:47.868Z,23.16
2018-05-14T07:03:19.140Z,23.20
2018-05-14T07:05:46.774Z,23.52
2018-05-14T07:08:14.440Z,23.69
2018-05-14T07:10:42.046Z,23.68
2018-05-14T07:13:09.625Z,23.23
2018-05-14T07:15:37.207Z,22.98
2018-05-14T07:18:04.886Z,22.98
2018-05-14T07:20:32.458Z,22.95
2018-05-14T07:23:00.036Z,23.08
2018-05-14T07:25:27.657Z,23.01
2018-05-14T07:27:55.328Z,22.51
2018-05-14T07:30:22.911Z,22.37
2018-05-14T07:32:50.520Z,22.16
2018-05-14T07:35:18.945Z,22.52
2018-05-14T07:37:46.604Z,22.80
2018-05-14T07:40:14.229Z,23.05
2018-05-14T07:42:42.143Z,23.24
2018-05-14T07:45:09.743Z,23.04
2018-05-14T07:47:37.482Z,23.34
2018-05-14T07:50:05.043Z,23.51
2018-05-14T07:52:32.926Z,23.71
2018-05-14T07:55:00.719Z,23.56
2018-05-14T07:57:28.311Z,23.60
2018-05-14T07:59:55.868Z,24.08
2018-05-14T08:02:23.468Z,24.37
2018-05-14T08:04:51.051Z,24.45
2018-05-14T08:07:18.744Z,24.14
2018-05-14T08:09:46.408Z,24.52
2018-05-14T08:12:14.081Z,24.56
2018-05-14T08:14:41.656Z,24.05
2018-05-14T08:17:09.409Z,24.67
2018-05-14T08:19:36.991Z,24.91
2018-05-14T08:22:04.576Z,25.25
2018-05-14T08:24:32.208Z,25.56
2018-05-14T08:26:59.775Z,25.39
2018-05-14T08:29:27.355Z,25.18
2018-05-14T08:31:55.165Z,25.28
2018-05-14T08:34:22.735Z,25.67
2018-05-14T08:36:50.489Z,25.52
2018-05-14T08:39:18.312Z,25.36
2018-05-14T08:41:45.823Z,25.02
2018-05-14T08:44:13.401Z,24.92
2018-05-14T08:46:41.147Z,24.02
2018-05-14T08:49:08.810Z,24.17
2018-05-14T08:51:36.391Z,24.18
2018-05-14T08:54:04.120Z,24.37
2018-05-14T08:56:31.790Z,24.67
2018-05-14T08:58:59.459Z,24.87
2018-05-14T09:01:27.122Z,24.87
2018-05-14T09:03:54.708Z,24.72
2018-05-14T09:06:22.444Z,24.75
2018-05-14T09:08:50.081Z,24.84
2018-05-14T09:11:17.754Z,24.73
2018-05-14T09:13:45.326Z,24.43
2018-05-14T09:16:13.093Z,24.19
2018-05-14T09:18:40.922Z,23.85
2018-05-14T09:21:08.500Z,23.89
2018-05-14T09:23:36.197Z,23.65
2018-05-14T09:26:03.780Z,23.45
2018-05-14T09:28:31.464Z,23.72
2018-05-14T09:30:59.155Z,23.52
2018-05-14T09:33:26.731Z,23.16
2018-05-14T09:35:54.590Z,23.20
2018-05-14T09:38:22.261Z,23.32
2018-05-14T09:40:49.911Z,23.38
2018-05-14T09:43:17.571Z,23.20
2018-05-14T09:45:45.188Z,22.95
2018-05-14T09:48:12.909Z,22.90
2018-05-14T09:50:40.674Z,22.90
2018-05-14T09:53:08.300Z,22.85
2018-05-14T09:55:36.082Z,22.93
2018-05-14T09:58:03.761Z,23.07
2018-05-14T10:00:31.392Z,23.10
2018-05-14T10:02:59.077Z,23.20
2018-05-14T10:05:26.738Z,23.12
2018-05-14T10:07:54.370Z,23.24
2018-05-14T10:10:21.953Z,23.10
2018-05-14T10:12:49.544Z,23.37
2018-05-14T10:15:17.393Z,23.64
2018-05-14T10:17:45.462Z,23.60
2018-05-14T10:20:13.047Z,23.29
2018-05-14T10:22:40.785Z,22.81
2018-05-14T10:25:08.371Z,22.53
2018-05-14T10:27:36.118Z,22.44
2018-05-14T10:30:03.774Z,22.50
2018-05-14T10:32:31.434Z,22.58
2018-05-14T10:34:59.008Z,22.62
2018-05-14T10:37:26.625Z,22.61
2018-05-14T10:39:54.200Z,22.66
2018-05-14T10:42:21.877Z,22.60
2018-05-14T10:44:49.486Z,22.62
2018-05-14T10:47:17.339Z,22.59
2018-05-14T10:49:44.951Z,22.54
2018-05-14T10:52:12.778Z,22.53
2018-05-14T10:54:40.361Z,22.44
2018-05-14T10:57:08.164Z,22.62
2018-05-14T10:59:35.773Z,22.87
2018-05-14T11:02:03.352Z,23.18
2018-05-14T11:04:31.036Z,23.42
2018-05-14T11:06:58.705Z,23.80
2018-05-14T11:09:26.290Z,24.08
2018-05-14T11:11:53.861Z,24.42
2018-05-14T11:14:21.680Z,25.13
2018-05-14T11:16:49.349Z,26.24
2018-05-14T11:19:16.927Z,27.10
2018-05-14T11:21:44.671Z,27.28
2018-05-14T11:24:12.256Z,26.38
2018-05-14T11:26:39.831Z,28.13
2018-05-14T11:29:07.471Z,30.47
2018-05-14T11:31:35.117Z,31.61
2018-05-14T11:34:02.795Z,32.50
2018-05-14T11:36:30.408Z,33.16
2018-05-14T11:38:58.106Z,33.22
2018-05-14T11:41:25.777Z,33.06
2018-05-14T11:43:53.431Z,32.76
2018-05-14T11:46:21.098Z,32.60
2018-05-14T11:48:48.660Z,32.42
2018-05-14T11:51:16.410Z,32.31
2018-05-14T11:53:43.995Z,32.58
2018-05-14T11:56:11.747Z,33.55
2018-05-14T11:58:39.350Z,33.70
2018-05-14T12:01:07.060Z,32.97
2018-05-14T12:03:34.646Z,32.99
2018-05-14T12:06:02.294Z,32.96
2018-05-14T12:08:30.081Z,32.71
2018-05-14T12:10:57.658Z,32.87
2018-05-14T12:13:25.269Z,32.32
2018-05-14T12:15:53.026Z,31.17
2018-05-14T12:18:20.697Z,30.89
2018-05-14T12:20:48.361Z,29.29
2018-05-14T12:23:16.025Z,30.17
2018-05-14T12:25:43.616Z,30.87
2018-05-14T12:28:11.353Z,31.40
2018-05-14T12:30:38.949Z,32.00
2018-05-14T12:33:06.587Z,32.12
2018-05-14T12:35:34.191Z,32.43
2018-05-14T12:38:01.808Z,31.88
2018-05-14T12:40:29.469Z,30.05
2018-05-14T12:42:57.081Z,29.10
2018-05-14T12:45:24.785Z,28.45
2018-05-14T12:47:52.458Z,28.19
2018-05-14T12:50:20.066Z,27.67
2018-05-14T12:52:47.634Z,26.61
2018-05-14T12:55:15.206Z,25.88
2018-05-14T12:57:42.824Z,26.60
2018-05-14T13:00:10.406Z,26.98
2018-05-14T13:02:37.979Z,27.01
2018-05-14T13:05:05.678Z,26.97
2018-05-14T13:07:33.348Z,26.58
2018-05-14T13:10:01.008Z,26.50
2018-05-14T13:12:28.635Z,26.45
2018-05-14T13:14:56.224Z,26.12
2018-05-14T13:17:23.989Z,26.20
2018-05-14T13:19:51.661Z,26.41
2018-05-14T13:22:19.333Z,26.59
2018-05-14T13:24:46.923Z,26.79
2018-05-14T13:27:14.648Z,26.83
2018-05-14T13:29:42.296Z,26.97
2018-05-14T13:32:09.980Z,26.70
2018-05-14T13:34:37.624Z,26.21
2018-05-14T13:37:05.275Z,26.28
2018-05-14T13:39:32.941Z,26.52
2018-05-14T13:42:00.561Z,26.72
2018-05-14T13:44:28.511Z,26.90
2018-05-14T13:46:56.104Z,26.78
2018-05-14T13:49:23.716Z,26.32
2018-05-14T13:51:51.661Z,26.06
2018-05-14T13:54:19.247Z,25.93
2018-05-14T13:56:46.874Z,25.64
2018-05-14T13:59:14.460Z,25.45
2018-05-14T14:01:42.039Z,25.34
2018-05-14T14:04:09.661Z,24.85
2018-05-14T14:06:37.249Z,24.66
2018-05-14T14:09:04.889Z,24.75
2018-05-14T14:11:32.505Z,24.56
2018-05-14T14:14:00.148Z,24.85
2018-05-14T14:16:27.723Z,24.80
2018-05-14T14:18:55.335Z,24.71
2018-05-14T14:21:22.912Z,24.73
2018-05-14T14:23:50.704Z,24.77
2018-05-14T14:26:18.136Z,24.65
2018-05-14T14:28:45.694Z,24.64
2018-05-14T14:31:13.288Z,24.50
2018-05-14T14:33:40.894Z,24.51
2018-05-14T14:36:08.524Z,24.35
2018-05-14T14:38:36.104Z,24.40
2018-05-14T14:41:03.727Z,24.53
2018-05-14T14:43:31.324Z,24.30
2018-05-14T14:45:58.895Z,24.32
2018-05-14T14:48:26.509Z,24.29
2018-05-14T14:50:54.120Z,24.19
2018-05-14T14:53:21.839Z,24.06
2018-05-14T14:55:49.620Z,24.05
2018-05-14T14:58:17.271Z,24.02
2018-05-14T15:00:44.829Z,24.03
2018-05-14T15:03:12.393Z,24.10
2018-05-14T15:05:40.011Z,24.11
2018-05-14T15:08:07.593Z,24.11
2018-05-14T15:10:35.254Z,23.98
2018-05-14T15:13:02.873Z,24.03
2018-05-14T15:15:30.537Z,23.96
2018-05-14T15:17:58.136Z,23.90
2018-05-14T15:20:25.778Z,24.00
2018-05-14T15:22:53.346Z,24.12
2018-05-14T15:25:20.930Z,24.10
2018-05-14T15:27:48.560Z,24.16
2018-05-14T15:30:16.161Z,24.22
2018-05-14T15:32:43.739Z,24.29
2018-05-14T15:35:11.351Z,24.16
2018-05-14T15:37:38.923Z,24.23
2018-05-14T15:40:06.500Z,24.22
2018-05-14T15:42:34.112Z,24.22
2018-05-14T15:45:01.693Z,24.18
2018-05-14T15:47:29.258Z,24.13
2018-05-14T15:49:56.939Z,24.06
2018-05-14T15:52:24.484Z,23.93
2018-05-14T15:54:52.062Z,23.94
2018-05-14T15:57:19.726Z,23.90
2018-05-14T15:59:47.308Z,23.94
2018-05-14T16:02:14.898Z,23.92
2018-05-14T16:04:42.532Z,23.84
2018-05-14T16:07:10.159Z,23.59
2018-05-14T16:09:37.734Z,23.53
2018-05-14T16:12:05.340Z,23.47
2018-05-14T16:14:32.952Z,23.45
2018-05-14T16:17:00.594Z,23.40
2018-05-14T16:19:28.213Z,23.26
2018-05-14T16:21:55.799Z,23.19
2018-05-14T16:24:23.429Z,23.08
2018-05-14T16:26:51.225Z,22.92
2018-05-14T16:29:18.804Z,22.79
2018-05-14T16:31:46.378Z,22.78
2018-05-14T16:34:14.167Z,22.71
2018-05-14T16:36:41.722Z,22.66
2018-05-14T16:39:09.299Z,22.63
2018-05-14T16:41:36.909Z,22.64
2018-05-14T16:44:04.498Z,22.65
2018-05-14T16:46:32.080Z,22.62
2018-05-14T16:48:59.727Z,22.56
2018-05-14T16:51:27.304Z,22.55
2018-05-14T16:53:54.882Z,22.54
2018-05-14T16:56:22.675Z,22.54
2018-05-14T16:58:50.408Z,22.53
2018-05-14T17:01:17.980Z,22.52
2018-05-14T17:03:45.731Z,22.49
2018-05-14T17:06:13.269Z,22.44
2018-05-14T17:08:40.845Z,22.38
2018-05-14T17:11:08.646Z,22.33
2018-05-14T17:13:36.211Z,22.24
2018-05-14T17:16:03.775Z,22.13
2018-05-14T17:18:31.365Z,22.11
2018-05-14T17:20:58.935Z,22.06
2018-05-14T17:23:26.545Z,22.05
2018-05-14T17:25:54.211Z,22.03
2018-05-14T17:28:21.790Z,21.96
2018-05-14T17:30:49.561Z,21.95
2018-05-14T17:33:17.396Z,21.86
2018-05-14T17:35:45.131Z,21.77
2018-05-14T17:38:12.928Z,21.67
2018-05-14T17:40:40.631Z,21.60
2018-05-14T17:43:08.696Z,21.50
2018-05-14T17:45:36.492Z,21.43
2018-05-14T17:48:04.167Z,21.42
2018-05-14T17:50:31.759Z,21.41
2018-05-14T17:52:59.420Z,21.36
2018-05-14T17:55:27.387Z,21.29
2018-05-14T17:57:55.041Z,21.10
2018-05-14T18:00:22.712Z,20.95
2018-05-14T18:02:50.354Z,20.80
2018-05-14T18:05:18.060Z,20.76
2018-05-14T18:07:45.636Z,20.76
2018-05-14T18:10:13.266Z,20.75
2018-05-14T18:12:40.858Z,20.71
2018-05-14T18:15:08.438Z,20.71
2018-05-14T18:17:36.564Z,20.77
2018-05-14T18:20:09.541Z,20.71
2018-05-14T18:22:40.277Z,20.65
2018-05-14T18:25:13.666Z,20.71
2018-05-14T18:27:46.854Z,20.73
2018-05-14T18:30:14.445Z,20.67
2018-05-14T18:35:54.555Z,20.75
2018-05-14T18:38:22.367Z,20.73
2018-05-14T18:40:50.008Z,20.75
2018-05-14T18:43:17.587Z,20.60
2018-05-14T18:45:45.403Z,20.44
2018-05-14T18:48:12.987Z,20.38
2018-05-14T18:50:40.654Z,20.14
2018-05-14T18:53:08.261Z,20.05
2018-05-14T18:55:35.980Z,19.97
2018-05-14T18:58:03.648Z,19.92
2018-05-14T19:00:31.319Z,19.93
2018-05-14T19:02:58.899Z,19.82
2018-05-14T19:05:26.632Z,19.84
2018-05-14T19:07:54.313Z,19.80
2018-05-14T19:10:27.500Z,19.80
2018-05-14T19:12:55.162Z,19.93
2018-05-14T19:15:28.210Z,19.96
2018-05-14T19:18:00.713Z,20.05
2018-05-14T19:20:28.300Z,20.23
2018-05-14T19:23:01.580Z,20.33
2018-05-14T19:25:29.188Z,20.43
2018-05-14T19:28:02.437Z,20.55
2018-05-14T19:30:30.101Z,20.63
2018-05-14T19:32:57.703Z,20.69
2018-05-14T19:35:31.332Z,20.63
2018-05-14T19:37:59.231Z,20.69
2018-05-14T19:40:32.572Z,20.75
2018-05-14T19:43:00.190Z,20.76
2018-05-14T19:45:27.942Z,20.73
2018-05-14T19:47:55.545Z,20.79
2018-05-14T19:50:23.205Z,20.79
2018-05-14T19:52:50.743Z,20.81
2018-05-14T19:55:18.664Z,20.79
2018-05-14T19:57:46.261Z,20.87
2018-05-14T20:00:13.908Z,20.91
2018-05-14T20:02:41.505Z,20.92
2018-05-14T20:05:09.072Z,20.82
2018-05-14T20:07:36.707Z,20.72
2018-05-14T20:10:04.332Z,20.60
2018-05-14T20:12:32.119Z,20.43
2018-05-14T20:14:59.982Z,20.32
2018-05-14T20:17:27.648Z,20.23
2018-05-14T20:19:55.267Z,20.27
2018-05-14T20:22:23.110Z,20.18
2018-05-14T20:24:50.855Z,20.03
2018-05-14T20:27:18.596Z,19.84
2018-05-14T20:29:46.583Z,19.74
2018-05-14T20:32:14.251Z,19.69
2018-05-14T20:34:41.841Z,19.62
2018-05-14T20:37:09.603Z,19.60
2018-05-14T20:39:37.232Z,19.53
2018-05-14T20:42:04.900Z,19.45
2018-05-14T20:44:32.487Z,19.44
2018-05-14T20:47:00.108Z,19.39
2018-05-14T20:49:27.687Z,19.29
2018-05-14T20:51:55.529Z,19.28
2018-05-14T20:54:23.162Z,19.13
2018-05-14T20:56:50.852Z,19.03
2018-05-14T20:59:18.741Z,18.99
2018-05-14T21:01:46.356Z,18.97
2018-05-14T21:04:14.052Z,18.97
2018-05-14T21:06:41.707Z,18.98
2018-05-14T21:09:09.334Z,18.99
2018-05-14T21:11:36.947Z,19.00
2018-05-14T21:14:04.584Z,18.92
2018-05-14T21:16:32.377Z,18.84
2018-05-14T21:18:59.971Z,18.76
2018-05-14T21:21:27.554Z,18.71
2018-05-14T21:23:55.192Z,18.67
2018-05-14T21:26:22.775Z,18.62
2018-05-14T21:28:50.484Z,18.60
2018-05-14T21:31:18.203Z,18.68
2018-05-14T21:33:45.786Z,18.67
2018-05-14T21:36:13.362Z,18.54
2018-05-14T21:38:40.980Z,18.45
2018-05-14T21:41:08.562Z,18.42
2018-05-14T21:43:36.144Z,18.39
2018-05-14T21:46:03.761Z,18.33
2018-05-14T21:48:31.344Z,18.29
2018-05-14T21:50:58.911Z,18.17
2018-05-14T21:53:26.545Z,18.16
2018-05-14T21:55:54.208Z,18.18
2018-05-14T21:58:21.788Z,18.16
2018-05-14T22:00:49.400Z,18.07
2018-05-14T22:03:16.985Z,17.95
2018-05-14T22:05:50.740Z,17.92
2018-05-14T22:08:18.414Z,17.98
2018-05-14T22:10:46.014Z,17.95
2018-05-14T22:13:13.642Z,17.91
2018-05-14T22:15:41.367Z,17.87
2018-05-14T22:18:08.973Z,17.87
2018-05-14T22:20:36.620Z,17.83
2018-05-14T22:23:04.359Z,17.91
2018-05-14T22:25:31.959Z,17.96
2018-05-14T22:27:59.612Z,17.92
2018-05-14T22:30:27.191Z,17.92
2018-05-14T22:32:54.778Z,18.05
2018-05-14T22:35:22.383Z,18.15
2018-05-14T22:37:49.973Z,18.20
2018-05-14T22:40:17.552Z,18.22
2018-05-14T22:42:45.180Z,18.26
2018-05-14T22:45:12.780Z,18.28
2018-05-14T22:47:40.409Z,18.30
2018-05-14T22:50:08.073Z,18.34
2018-05-14T22:52:35.666Z,18.36
2018-05-14T22:55:03.254Z,18.40
2018-05-14T22:57:30.888Z,18.43
2018-05-14T22:59:58.560Z,18.41
2018-05-14T23:02:26.563Z,18.43
2018-05-14T23:04:54.177Z,18.41
2018-05-14T23:07:21.849Z,18.41
2018-05-14T23:09:49.521Z,18.47
2018-05-14T23:12:17.371Z,18.50
2018-05-14T23:14:45.214Z,18.53
2018-05-14T23:17:13.163Z,18.57
2018-05-14T23:19:41.234Z,18.56
2018-05-14T23:22:09.307Z,18.66
2018-05-14T23:24:37.175Z,18.68
2018-05-14T23:27:05.245Z,18.67
2018-05-14T23:29:33.318Z,18.70
2018-05-14T23:32:01.209Z,18.69
2018-05-14T23:34:29.284Z,18.72
2018-05-14T23:36:57.245Z,18.73
2018-05-14T23:39:24.992Z,18.66
2018-05-14T23:41:53.063Z,18.63
2018-05-14T23:44:21.135Z,18.63
2018-05-14T23:46:49.181Z,18.57
2018-05-14T23:49:17.271Z,18.48
2018-05-14T23:51:45.146Z,18.43
2018-05-14T23:54:13.216Z,18.34
2018-05-14T23:56:41.275Z,18.30
2018-05-14T23:59:09.155Z,18.27
